<?xml version="1.0" encoding="UTF-8" standalone="no" ?>
<gpx xmlns="http://www.topografix.com/GPX/1/1" xmlns:xsi="http://www.w3.org/2001/XMLSchema-instance" xsi:schemaLocation="http://www.topografix.com/GPX/1/1 http://www.topografix.com/GPX/1/1/gpx.xsd" version="1.1" creator="VisuGPX - https://www.visugpx.com">
  <metadata>
    <name>Pointe de la Galoppaz par le Lindar</name>
    <desc><![CDATA[Ballade familliale avec enfant de 6 ans]]></desc>
  </metadata>
  <trk>
    <name><![CDATA[Pointe de la galoppe lindar]]></name>
    <desc><![CDATA[Col buffaz]]></desc>
    <trkseg>
      <trkpt lat="45.56908" lon="6.08255">
        <ele>1032.763062</ele>
        <time>2011-09-25T10:56:20Z</time>
      </trkpt>
      <trkpt lat="45.56978" lon="6.08381">
        <ele>1063.435425</ele>
        <time>2011-09-25T10:56:21Z</time>
      </trkpt>
      <trkpt lat="45.56978" lon="6.08381">
        <ele>1063.435425</ele>
        <time>2011-09-25T10:56:22Z</time>
      </trkpt>
      <trkpt lat="45.56986" lon="6.08387">
        <ele>1060.237549</ele>
        <time>2011-09-25T10:56:23Z</time>
      </trkpt>
      <trkpt lat="45.56986" lon="6.08387">
        <ele>1060.237549</ele>
        <time>2011-09-25T10:56:28Z</time>
      </trkpt>
      <trkpt lat="45.56977" lon="6.08385">
        <ele>1069.302734</ele>
        <time>2011-09-25T10:56:36Z</time>
      </trkpt>
      <trkpt lat="45.56962" lon="6.08387">
        <ele>1068.800781</ele>
        <time>2011-09-25T10:56:50Z</time>
      </trkpt>
      <trkpt lat="45.56952" lon="6.0839">
        <ele>1068.106689</ele>
        <time>2011-09-25T10:57:00Z</time>
      </trkpt>
      <trkpt lat="45.56942" lon="6.08396">
        <ele>1067.82373</ele>
        <time>2011-09-25T10:57:11Z</time>
      </trkpt>
      <trkpt lat="45.56932" lon="6.08397">
        <ele>1067.758789</ele>
        <time>2011-09-25T10:57:22Z</time>
      </trkpt>
      <trkpt lat="45.56923" lon="6.08397">
        <ele>1067.697754</ele>
        <time>2011-09-25T10:57:33Z</time>
      </trkpt>
      <trkpt lat="45.56912" lon="6.08399">
        <ele>1067.655762</ele>
        <time>2011-09-25T10:57:44Z</time>
      </trkpt>
      <trkpt lat="45.56903" lon="6.08397">
        <ele>1067.655762</ele>
        <time>2011-09-25T10:57:54Z</time>
      </trkpt>
      <trkpt lat="45.56885" lon="6.08396">
        <ele>1068.119507</ele>
        <time>2011-09-25T10:58:17Z</time>
      </trkpt>
      <trkpt lat="45.56873" lon="6.08393">
        <ele>1072.30835</ele>
        <time>2011-09-25T10:58:38Z</time>
      </trkpt>
      <trkpt lat="45.56863" lon="6.0839">
        <ele>1073.547241</ele>
        <time>2011-09-25T10:58:41Z</time>
      </trkpt>
      <trkpt lat="45.56852" lon="6.08386">
        <ele>1074.67395</ele>
        <time>2011-09-25T10:58:46Z</time>
      </trkpt>
      <trkpt lat="45.56837" lon="6.08381">
        <ele>1075.802612</ele>
        <time>2011-09-25T10:58:53Z</time>
      </trkpt>
      <trkpt lat="45.56828" lon="6.08377">
        <ele>1076.871948</ele>
        <time>2011-09-25T10:59:03Z</time>
      </trkpt>
      <trkpt lat="45.56819" lon="6.08375">
        <ele>1077.675659</ele>
        <time>2011-09-25T10:59:09Z</time>
      </trkpt>
      <trkpt lat="45.56805" lon="6.08373">
        <ele>1077.978149</ele>
        <time>2011-09-25T10:59:21Z</time>
      </trkpt>
      <trkpt lat="45.56796" lon="6.08369">
        <ele>1077.890259</ele>
        <time>2011-09-25T10:59:31Z</time>
      </trkpt>
      <trkpt lat="45.56789" lon="6.08359">
        <ele>1077.737793</ele>
        <time>2011-09-25T10:59:44Z</time>
      </trkpt>
      <trkpt lat="45.56779" lon="6.08353">
        <ele>1077.630127</ele>
        <time>2011-09-25T10:59:52Z</time>
      </trkpt>
      <trkpt lat="45.56776" lon="6.08339">
        <ele>1078.237671</ele>
        <time>2011-09-25T11:00:10Z</time>
      </trkpt>
      <trkpt lat="45.56767" lon="6.08329">
        <ele>1078.533569</ele>
        <time>2011-09-25T11:00:16Z</time>
      </trkpt>
      <trkpt lat="45.56757" lon="6.08321">
        <ele>1078.880249</ele>
        <time>2011-09-25T11:00:23Z</time>
      </trkpt>
      <trkpt lat="45.56746" lon="6.08317">
        <ele>1079.145386</ele>
        <time>2011-09-25T11:00:28Z</time>
      </trkpt>
      <trkpt lat="45.56735" lon="6.08313">
        <ele>1079.313965</ele>
        <time>2011-09-25T11:00:33Z</time>
      </trkpt>
      <trkpt lat="45.56723" lon="6.08307">
        <ele>1079.438721</ele>
        <time>2011-09-25T11:00:41Z</time>
      </trkpt>
      <trkpt lat="45.56714" lon="6.08305">
        <ele>1079.531494</ele>
        <time>2011-09-25T11:00:45Z</time>
      </trkpt>
      <trkpt lat="45.56703" lon="6.08303">
        <ele>1079.55542</ele>
        <time>2011-09-25T11:00:49Z</time>
      </trkpt>
      <trkpt lat="45.56694" lon="6.08295">
        <ele>1079.680176</ele>
        <time>2011-09-25T11:01:00Z</time>
      </trkpt>
      <trkpt lat="45.56683" lon="6.0829">
        <ele>1079.722046</ele>
        <time>2011-09-25T11:01:05Z</time>
      </trkpt>
      <trkpt lat="45.56673" lon="6.08287">
        <ele>1079.663574</ele>
        <time>2011-09-25T11:01:09Z</time>
      </trkpt>
      <trkpt lat="45.56664" lon="6.08282">
        <ele>1079.640869</ele>
        <time>2011-09-25T11:01:16Z</time>
      </trkpt>
      <trkpt lat="45.56655" lon="6.0828">
        <ele>1079.619019</ele>
        <time>2011-09-25T11:01:20Z</time>
      </trkpt>
      <trkpt lat="45.56645" lon="6.08281">
        <ele>1079.615234</ele>
        <time>2011-09-25T11:01:25Z</time>
      </trkpt>
      <trkpt lat="45.56634" lon="6.08285">
        <ele>1079.611938</ele>
        <time>2011-09-25T11:01:29Z</time>
      </trkpt>
      <trkpt lat="45.56623" lon="6.08286">
        <ele>1079.55957</ele>
        <time>2011-09-25T11:01:33Z</time>
      </trkpt>
      <trkpt lat="45.56612" lon="6.08283">
        <ele>1079.440918</ele>
        <time>2011-09-25T11:01:38Z</time>
      </trkpt>
      <trkpt lat="45.56601" lon="6.08283">
        <ele>1079.43042</ele>
        <time>2011-09-25T11:01:43Z</time>
      </trkpt>
      <trkpt lat="45.56591" lon="6.08285">
        <ele>1079.513306</ele>
        <time>2011-09-25T11:01:48Z</time>
      </trkpt>
      <trkpt lat="45.56581" lon="6.08283">
        <ele>1079.521973</ele>
        <time>2011-09-25T11:01:53Z</time>
      </trkpt>
      <trkpt lat="45.56572" lon="6.08278">
        <ele>1079.413208</ele>
        <time>2011-09-25T11:01:58Z</time>
      </trkpt>
      <trkpt lat="45.56564" lon="6.08272">
        <ele>1079.312256</ele>
        <time>2011-09-25T11:02:03Z</time>
      </trkpt>
      <trkpt lat="45.56555" lon="6.08268">
        <ele>1079.266724</ele>
        <time>2011-09-25T11:02:09Z</time>
      </trkpt>
      <trkpt lat="45.56546" lon="6.08262">
        <ele>1079.177246</ele>
        <time>2011-09-25T11:02:15Z</time>
      </trkpt>
      <trkpt lat="45.56538" lon="6.08256">
        <ele>1079.070435</ele>
        <time>2011-09-25T11:02:22Z</time>
      </trkpt>
      <trkpt lat="45.56535" lon="6.08242">
        <ele>1078.754761</ele>
        <time>2011-09-25T11:02:28Z</time>
      </trkpt>
      <trkpt lat="45.56533" lon="6.0823">
        <ele>1078.250122</ele>
        <time>2011-09-25T11:02:38Z</time>
      </trkpt>
      <trkpt lat="45.56542" lon="6.08225">
        <ele>1078.09314</ele>
        <time>2011-09-25T11:02:54Z</time>
      </trkpt>
      <trkpt lat="45.56546" lon="6.08225">
        <ele>1078.248657</ele>
        <time>2011-09-25T11:02:57Z</time>
      </trkpt>
      <trkpt lat="45.56556" lon="6.08217">
        <ele>1078.420776</ele>
        <time>2011-09-25T11:03:06Z</time>
      </trkpt>
      <trkpt lat="45.56566" lon="6.08215">
        <ele>1078.970581</ele>
        <time>2011-09-25T11:03:15Z</time>
      </trkpt>
      <trkpt lat="45.56571" lon="6.08227">
        <ele>1079.900513</ele>
        <time>2011-09-25T11:03:21Z</time>
      </trkpt>
      <trkpt lat="45.56574" lon="6.0823">
        <ele>1080.415283</ele>
        <time>2011-09-25T11:03:24Z</time>
      </trkpt>
      <trkpt lat="45.5658" lon="6.0824">
        <ele>1081.299927</ele>
        <time>2011-09-25T11:03:29Z</time>
      </trkpt>
      <trkpt lat="45.56589" lon="6.08247">
        <ele>1082.158936</ele>
        <time>2011-09-25T11:03:34Z</time>
      </trkpt>
      <trkpt lat="45.56598" lon="6.0825">
        <ele>1083.144043</ele>
        <time>2011-09-25T11:03:40Z</time>
      </trkpt>
      <trkpt lat="45.56603" lon="6.08252">
        <ele>1083.53064</ele>
        <time>2011-09-25T11:03:43Z</time>
      </trkpt>
      <trkpt lat="45.56613" lon="6.08248">
        <ele>1084.207397</ele>
        <time>2011-09-25T11:03:49Z</time>
      </trkpt>
      <trkpt lat="45.56622" lon="6.08248">
        <ele>1084.722168</ele>
        <time>2011-09-25T11:03:55Z</time>
      </trkpt>
      <trkpt lat="45.56631" lon="6.08252">
        <ele>1085.067383</ele>
        <time>2011-09-25T11:04:02Z</time>
      </trkpt>
      <trkpt lat="45.56641" lon="6.08255">
        <ele>1085.292847</ele>
        <time>2011-09-25T11:04:09Z</time>
      </trkpt>
      <trkpt lat="45.5664" lon="6.08244">
        <ele>1086.807495</ele>
        <time>2011-09-25T11:04:48Z</time>
      </trkpt>
      <trkpt lat="45.56632" lon="6.08256">
        <ele>1087.257202</ele>
        <time>2011-09-25T11:04:52Z</time>
      </trkpt>
      <trkpt lat="45.56632" lon="6.08256">
        <ele>1087.272217</ele>
        <time>2011-09-25T11:04:53Z</time>
      </trkpt>
      <trkpt lat="45.5662" lon="6.08255">
        <ele>1088.365601</ele>
        <time>2011-09-25T11:05:09Z</time>
      </trkpt>
      <trkpt lat="45.56629" lon="6.08253">
        <ele>1088.62439</ele>
        <time>2011-09-25T11:05:33Z</time>
      </trkpt>
      <trkpt lat="45.56634" lon="6.08251">
        <ele>1088.662598</ele>
        <time>2011-09-25T11:05:42Z</time>
      </trkpt>
      <trkpt lat="45.56647" lon="6.08251">
        <ele>1088.252441</ele>
        <time>2011-09-25T11:06:11Z</time>
      </trkpt>
      <trkpt lat="45.56658" lon="6.0825">
        <ele>1088.035645</ele>
        <time>2011-09-25T11:06:28Z</time>
      </trkpt>
      <trkpt lat="45.56667" lon="6.08253">
        <ele>1087.854492</ele>
        <time>2011-09-25T11:06:40Z</time>
      </trkpt>
      <trkpt lat="45.56678" lon="6.08254">
        <ele>1087.997314</ele>
        <time>2011-09-25T11:06:47Z</time>
      </trkpt>
      <trkpt lat="45.56688" lon="6.08254">
        <ele>1088.295288</ele>
        <time>2011-09-25T11:06:52Z</time>
      </trkpt>
      <trkpt lat="45.56698" lon="6.08253">
        <ele>1088.573975</ele>
        <time>2011-09-25T11:06:57Z</time>
      </trkpt>
      <trkpt lat="45.56708" lon="6.08253">
        <ele>1088.78186</ele>
        <time>2011-09-25T11:07:02Z</time>
      </trkpt>
      <trkpt lat="45.56722" lon="6.08254">
        <ele>1089.083374</ele>
        <time>2011-09-25T11:07:10Z</time>
      </trkpt>
      <trkpt lat="45.56731" lon="6.08257">
        <ele>1089.255737</ele>
        <time>2011-09-25T11:07:17Z</time>
      </trkpt>
      <trkpt lat="45.56741" lon="6.08261">
        <ele>1089.398682</ele>
        <time>2011-09-25T11:07:25Z</time>
      </trkpt>
      <trkpt lat="45.56744" lon="6.08262">
        <ele>1089.468994</ele>
        <time>2011-09-25T11:07:27Z</time>
      </trkpt>
      <trkpt lat="45.56754" lon="6.08265">
        <ele>1089.651123</ele>
        <time>2011-09-25T11:07:34Z</time>
      </trkpt>
      <trkpt lat="45.56762" lon="6.08268">
        <ele>1089.762939</ele>
        <time>2011-09-25T11:07:40Z</time>
      </trkpt>
      <trkpt lat="45.56764" lon="6.08269">
        <ele>1089.768433</ele>
        <time>2011-09-25T11:07:41Z</time>
      </trkpt>
      <trkpt lat="45.56774" lon="6.08268">
        <ele>1089.885254</ele>
        <time>2011-09-25T11:07:48Z</time>
      </trkpt>
      <trkpt lat="45.56775" lon="6.08268">
        <ele>1089.925537</ele>
        <time>2011-09-25T11:07:49Z</time>
      </trkpt>
      <trkpt lat="45.56784" lon="6.08266">
        <ele>1090.422852</ele>
        <time>2011-09-25T11:07:56Z</time>
      </trkpt>
      <trkpt lat="45.56786" lon="6.08265">
        <ele>1090.650757</ele>
        <time>2011-09-25T11:07:58Z</time>
      </trkpt>
      <trkpt lat="45.56799" lon="6.08261">
        <ele>1091.824707</ele>
        <time>2011-09-25T11:08:10Z</time>
      </trkpt>
      <trkpt lat="45.56807" lon="6.08256">
        <ele>1092.311768</ele>
        <time>2011-09-25T11:08:16Z</time>
      </trkpt>
      <trkpt lat="45.56817" lon="6.08254">
        <ele>1092.72998</ele>
        <time>2011-09-25T11:08:22Z</time>
      </trkpt>
      <trkpt lat="45.5682" lon="6.08253">
        <ele>1092.86853</ele>
        <time>2011-09-25T11:08:24Z</time>
      </trkpt>
      <trkpt lat="45.56829" lon="6.08249">
        <ele>1093.260254</ele>
        <time>2011-09-25T11:08:30Z</time>
      </trkpt>
      <trkpt lat="45.56832" lon="6.08248">
        <ele>1093.410034</ele>
        <time>2011-09-25T11:08:33Z</time>
      </trkpt>
      <trkpt lat="45.56841" lon="6.08242">
        <ele>1094.252075</ele>
        <time>2011-09-25T11:08:41Z</time>
      </trkpt>
      <trkpt lat="45.56849" lon="6.08234">
        <ele>1095.379761</ele>
        <time>2011-09-25T11:08:52Z</time>
      </trkpt>
      <trkpt lat="45.56852" lon="6.08233">
        <ele>1095.783325</ele>
        <time>2011-09-25T11:08:56Z</time>
      </trkpt>
      <trkpt lat="45.56866" lon="6.0823">
        <ele>1096.364014</ele>
        <time>2011-09-25T11:09:06Z</time>
      </trkpt>
      <trkpt lat="45.56875" lon="6.08224">
        <ele>1096.940552</ele>
        <time>2011-09-25T11:09:16Z</time>
      </trkpt>
      <trkpt lat="45.56875" lon="6.08224">
        <ele>1096.974243</ele>
        <time>2011-09-25T11:09:17Z</time>
      </trkpt>
      <trkpt lat="45.56883" lon="6.08216">
        <ele>1097.361694</ele>
        <time>2011-09-25T11:09:24Z</time>
      </trkpt>
      <trkpt lat="45.56883" lon="6.08216">
        <ele>1097.373657</ele>
        <time>2011-09-25T11:09:25Z</time>
      </trkpt>
      <trkpt lat="45.56892" lon="6.08218">
        <ele>1100.718872</ele>
        <time>2011-09-25T11:09:56Z</time>
      </trkpt>
      <trkpt lat="45.56902" lon="6.08215">
        <ele>1102.455811</ele>
        <time>2011-09-25T11:10:06Z</time>
      </trkpt>
      <trkpt lat="45.56902" lon="6.08215">
        <ele>1103.143188</ele>
        <time>2011-09-25T11:10:11Z</time>
      </trkpt>
      <trkpt lat="45.56905" lon="6.08202">
        <ele>1105.690552</ele>
        <time>2011-09-25T11:10:28Z</time>
      </trkpt>
      <trkpt lat="45.56906" lon="6.082">
        <ele>1105.758789</ele>
        <time>2011-09-25T11:10:29Z</time>
      </trkpt>
      <trkpt lat="45.56907" lon="6.08186">
        <ele>1106.268799</ele>
        <time>2011-09-25T11:10:39Z</time>
      </trkpt>
      <trkpt lat="45.56913" lon="6.08175">
        <ele>1106.168213</ele>
        <time>2011-09-25T11:10:49Z</time>
      </trkpt>
      <trkpt lat="45.56913" lon="6.08174">
        <ele>1106.121582</ele>
        <time>2011-09-25T11:10:50Z</time>
      </trkpt>
      <trkpt lat="45.56916" lon="6.0816">
        <ele>1105.616333</ele>
        <time>2011-09-25T11:11:00Z</time>
      </trkpt>
      <trkpt lat="45.56915" lon="6.08147">
        <ele>1105.452759</ele>
        <time>2011-09-25T11:11:13Z</time>
      </trkpt>
      <trkpt lat="45.56924" lon="6.08148">
        <ele>1105.440063</ele>
        <time>2011-09-25T11:11:26Z</time>
      </trkpt>
      <trkpt lat="45.56934" lon="6.08145">
        <ele>1104.912598</ele>
        <time>2011-09-25T11:11:50Z</time>
      </trkpt>
      <trkpt lat="45.56944" lon="6.08145">
        <ele>1105.140625</ele>
        <time>2011-09-25T11:11:56Z</time>
      </trkpt>
      <trkpt lat="45.56949" lon="6.08146">
        <ele>1105.248291</ele>
        <time>2011-09-25T11:11:58Z</time>
      </trkpt>
      <trkpt lat="45.56958" lon="6.08146">
        <ele>1105.540894</ele>
        <time>2011-09-25T11:12:02Z</time>
      </trkpt>
      <trkpt lat="45.56968" lon="6.08145">
        <ele>1105.909668</ele>
        <time>2011-09-25T11:12:07Z</time>
      </trkpt>
      <trkpt lat="45.56978" lon="6.08144">
        <ele>1106.655273</ele>
        <time>2011-09-25T11:12:14Z</time>
      </trkpt>
      <trkpt lat="45.56988" lon="6.08142">
        <ele>1107.642822</ele>
        <time>2011-09-25T11:12:22Z</time>
      </trkpt>
      <trkpt lat="45.56998" lon="6.08141">
        <ele>1108.67981</ele>
        <time>2011-09-25T11:12:28Z</time>
      </trkpt>
      <trkpt lat="45.57007" lon="6.08139">
        <ele>1109.779053</ele>
        <time>2011-09-25T11:12:34Z</time>
      </trkpt>
      <trkpt lat="45.57016" lon="6.08138">
        <ele>1111.735596</ele>
        <time>2011-09-25T11:12:45Z</time>
      </trkpt>
      <trkpt lat="45.57024" lon="6.0813">
        <ele>1113.074463</ele>
        <time>2011-09-25T11:12:53Z</time>
      </trkpt>
      <trkpt lat="45.57028" lon="6.08119">
        <ele>1113.894531</ele>
        <time>2011-09-25T11:12:59Z</time>
      </trkpt>
      <trkpt lat="45.57036" lon="6.08111">
        <ele>1115.254272</ele>
        <time>2011-09-25T11:13:08Z</time>
      </trkpt>
      <trkpt lat="45.57044" lon="6.08105">
        <ele>1116.896362</ele>
        <time>2011-09-25T11:13:17Z</time>
      </trkpt>
      <trkpt lat="45.57051" lon="6.08096">
        <ele>1118.543579</ele>
        <time>2011-09-25T11:13:27Z</time>
      </trkpt>
      <trkpt lat="45.57058" lon="6.08087">
        <ele>1120.305054</ele>
        <time>2011-09-25T11:13:38Z</time>
      </trkpt>
      <trkpt lat="45.57066" lon="6.08078">
        <ele>1122.492798</ele>
        <time>2011-09-25T11:13:55Z</time>
      </trkpt>
      <trkpt lat="45.57074" lon="6.08071">
        <ele>1123.704834</ele>
        <time>2011-09-25T11:14:07Z</time>
      </trkpt>
      <trkpt lat="45.57089" lon="6.08073">
        <ele>1124.45105</ele>
        <time>2011-09-25T11:14:25Z</time>
      </trkpt>
      <trkpt lat="45.57099" lon="6.08075">
        <ele>1124.567383</ele>
        <time>2011-09-25T11:14:32Z</time>
      </trkpt>
      <trkpt lat="45.57109" lon="6.08074">
        <ele>1125.309814</ele>
        <time>2011-09-25T11:14:52Z</time>
      </trkpt>
      <trkpt lat="45.57118" lon="6.08073">
        <ele>1125.893799</ele>
        <time>2011-09-25T11:15:07Z</time>
      </trkpt>
      <trkpt lat="45.57127" lon="6.08069">
        <ele>1126.811523</ele>
        <time>2011-09-25T11:15:15Z</time>
      </trkpt>
      <trkpt lat="45.57137" lon="6.08068">
        <ele>1128.260742</ele>
        <time>2011-09-25T11:15:25Z</time>
      </trkpt>
      <trkpt lat="45.57146" lon="6.08071">
        <ele>1130.026245</ele>
        <time>2011-09-25T11:15:37Z</time>
      </trkpt>
      <trkpt lat="45.57155" lon="6.08067">
        <ele>1131.089355</ele>
        <time>2011-09-25T11:15:46Z</time>
      </trkpt>
      <trkpt lat="45.57164" lon="6.08064">
        <ele>1131.714233</ele>
        <time>2011-09-25T11:15:54Z</time>
      </trkpt>
      <trkpt lat="45.57173" lon="6.08067">
        <ele>1133.101074</ele>
        <time>2011-09-25T11:16:06Z</time>
      </trkpt>
      <trkpt lat="45.57181" lon="6.08063">
        <ele>1133.921753</ele>
        <time>2011-09-25T11:16:13Z</time>
      </trkpt>
      <trkpt lat="45.57191" lon="6.08059">
        <ele>1135.28064</ele>
        <time>2011-09-25T11:16:21Z</time>
      </trkpt>
      <trkpt lat="45.572" lon="6.08055">
        <ele>1136.596802</ele>
        <time>2011-09-25T11:16:30Z</time>
      </trkpt>
      <trkpt lat="45.57206" lon="6.08045">
        <ele>1138.30481</ele>
        <time>2011-09-25T11:16:44Z</time>
      </trkpt>
      <trkpt lat="45.57207" lon="6.08031">
        <ele>1138.898071</ele>
        <time>2011-09-25T11:16:52Z</time>
      </trkpt>
      <trkpt lat="45.57215" lon="6.08025">
        <ele>1139.02478</ele>
        <time>2011-09-25T11:17:01Z</time>
      </trkpt>
      <trkpt lat="45.57216" lon="6.08024">
        <ele>1138.901978</ele>
        <time>2011-09-25T11:17:02Z</time>
      </trkpt>
      <trkpt lat="45.57219" lon="6.08013">
        <ele>1138.422241</ele>
        <time>2011-09-25T11:17:11Z</time>
      </trkpt>
      <trkpt lat="45.57224" lon="6.08001">
        <ele>1138.772827</ele>
        <time>2011-09-25T11:17:20Z</time>
      </trkpt>
      <trkpt lat="45.57229" lon="6.0799">
        <ele>1139.260254</ele>
        <time>2011-09-25T11:17:29Z</time>
      </trkpt>
      <trkpt lat="45.57235" lon="6.07979">
        <ele>1139.930786</ele>
        <time>2011-09-25T11:17:37Z</time>
      </trkpt>
      <trkpt lat="45.57235" lon="6.07964">
        <ele>1140.642578</ele>
        <time>2011-09-25T11:17:52Z</time>
      </trkpt>
      <trkpt lat="45.5723" lon="6.0795">
        <ele>1140.969727</ele>
        <time>2011-09-25T11:18:00Z</time>
      </trkpt>
      <trkpt lat="45.57226" lon="6.07937">
        <ele>1140.962036</ele>
        <time>2011-09-25T11:18:08Z</time>
      </trkpt>
      <trkpt lat="45.57224" lon="6.07936">
        <ele>1140.85791</ele>
        <time>2011-09-25T11:18:11Z</time>
      </trkpt>
      <trkpt lat="45.57232" lon="6.0793">
        <ele>1140.397461</ele>
        <time>2011-09-25T11:18:25Z</time>
      </trkpt>
      <trkpt lat="45.57241" lon="6.07937">
        <ele>1140.400513</ele>
        <time>2011-09-25T11:18:33Z</time>
      </trkpt>
      <trkpt lat="45.57244" lon="6.0795">
        <ele>1140.085449</ele>
        <time>2011-09-25T11:18:44Z</time>
      </trkpt>
      <trkpt lat="45.57248" lon="6.07962">
        <ele>1139.509521</ele>
        <time>2011-09-25T11:18:56Z</time>
      </trkpt>
      <trkpt lat="45.57255" lon="6.07972">
        <ele>1139.189453</ele>
        <time>2011-09-25T11:19:03Z</time>
      </trkpt>
      <trkpt lat="45.57262" lon="6.07981">
        <ele>1138.889282</ele>
        <time>2011-09-25T11:19:10Z</time>
      </trkpt>
      <trkpt lat="45.57268" lon="6.07988">
        <ele>1138.676758</ele>
        <time>2011-09-25T11:19:16Z</time>
      </trkpt>
      <trkpt lat="45.57277" lon="6.07991">
        <ele>1138.817261</ele>
        <time>2011-09-25T11:19:31Z</time>
      </trkpt>
      <trkpt lat="45.57277" lon="6.08004">
        <ele>1139.226685</ele>
        <time>2011-09-25T11:19:50Z</time>
      </trkpt>
      <trkpt lat="45.57285" lon="6.08019">
        <ele>1139.146118</ele>
        <time>2011-09-25T11:20:05Z</time>
      </trkpt>
      <trkpt lat="45.57288" lon="6.08032">
        <ele>1139.634766</ele>
        <time>2011-09-25T11:20:15Z</time>
      </trkpt>
      <trkpt lat="45.57294" lon="6.08043">
        <ele>1140.021729</ele>
        <time>2011-09-25T11:20:26Z</time>
      </trkpt>
      <trkpt lat="45.57301" lon="6.08051">
        <ele>1140.334595</ele>
        <time>2011-09-25T11:20:36Z</time>
      </trkpt>
      <trkpt lat="45.5731" lon="6.08055">
        <ele>1140.501221</ele>
        <time>2011-09-25T11:20:45Z</time>
      </trkpt>
      <trkpt lat="45.57319" lon="6.08059">
        <ele>1140.550293</ele>
        <time>2011-09-25T11:20:53Z</time>
      </trkpt>
      <trkpt lat="45.57328" lon="6.08063">
        <ele>1140.670654</ele>
        <time>2011-09-25T11:20:58Z</time>
      </trkpt>
      <trkpt lat="45.57338" lon="6.08064">
        <ele>1140.874878</ele>
        <time>2011-09-25T11:21:06Z</time>
      </trkpt>
      <trkpt lat="45.57347" lon="6.08065">
        <ele>1141.269897</ele>
        <time>2011-09-25T11:21:15Z</time>
      </trkpt>
      <trkpt lat="45.57356" lon="6.08063">
        <ele>1141.891357</ele>
        <time>2011-09-25T11:21:26Z</time>
      </trkpt>
      <trkpt lat="45.57365" lon="6.08063">
        <ele>1142.329834</ele>
        <time>2011-09-25T11:21:33Z</time>
      </trkpt>
      <trkpt lat="45.57374" lon="6.08061">
        <ele>1143.112915</ele>
        <time>2011-09-25T11:21:42Z</time>
      </trkpt>
      <trkpt lat="45.57383" lon="6.08056">
        <ele>1144.182861</ele>
        <time>2011-09-25T11:21:53Z</time>
      </trkpt>
      <trkpt lat="45.57392" lon="6.08051">
        <ele>1145.091553</ele>
        <time>2011-09-25T11:22:03Z</time>
      </trkpt>
      <trkpt lat="45.57395" lon="6.08039">
        <ele>1151.146729</ele>
        <time>2011-09-25T11:22:29Z</time>
      </trkpt>
      <trkpt lat="45.57404" lon="6.08029">
        <ele>1154.915894</ele>
        <time>2011-09-25T11:22:54Z</time>
      </trkpt>
      <trkpt lat="45.57414" lon="6.08024">
        <ele>1157.069946</ele>
        <time>2011-09-25T11:23:03Z</time>
      </trkpt>
      <trkpt lat="45.57424" lon="6.08022">
        <ele>1157.860229</ele>
        <time>2011-09-25T11:23:06Z</time>
      </trkpt>
      <trkpt lat="45.57434" lon="6.0802">
        <ele>1158.53125</ele>
        <time>2011-09-25T11:23:09Z</time>
      </trkpt>
      <trkpt lat="45.57444" lon="6.08017">
        <ele>1159.194214</ele>
        <time>2011-09-25T11:23:13Z</time>
      </trkpt>
      <trkpt lat="45.57457" lon="6.08016">
        <ele>1159.904785</ele>
        <time>2011-09-25T11:23:27Z</time>
      </trkpt>
      <trkpt lat="45.57457" lon="6.08016">
        <ele>1159.828979</ele>
        <time>2011-09-25T11:23:32Z</time>
      </trkpt>
      <trkpt lat="45.57468" lon="6.08004">
        <ele>1158.292236</ele>
        <time>2011-09-25T11:23:57Z</time>
      </trkpt>
      <trkpt lat="45.57476" lon="6.08014">
        <ele>1156.362549</ele>
        <time>2011-09-25T11:24:16Z</time>
      </trkpt>
      <trkpt lat="45.57479" lon="6.08026">
        <ele>1156.114746</ele>
        <time>2011-09-25T11:24:26Z</time>
      </trkpt>
      <trkpt lat="45.5748" lon="6.08041">
        <ele>1156.081543</ele>
        <time>2011-09-25T11:24:38Z</time>
      </trkpt>
      <trkpt lat="45.57482" lon="6.08054">
        <ele>1156.278809</ele>
        <time>2011-09-25T11:24:50Z</time>
      </trkpt>
      <trkpt lat="45.57489" lon="6.08064">
        <ele>1157.620117</ele>
        <time>2011-09-25T11:25:00Z</time>
      </trkpt>
      <trkpt lat="45.57501" lon="6.08071">
        <ele>1160.125977</ele>
        <time>2011-09-25T11:25:20Z</time>
      </trkpt>
      <trkpt lat="45.5751" lon="6.08073">
        <ele>1161.533813</ele>
        <time>2011-09-25T11:25:29Z</time>
      </trkpt>
      <trkpt lat="45.5752" lon="6.08073">
        <ele>1163.400024</ele>
        <time>2011-09-25T11:25:39Z</time>
      </trkpt>
      <trkpt lat="45.57529" lon="6.08072">
        <ele>1165.461792</ele>
        <time>2011-09-25T11:25:49Z</time>
      </trkpt>
      <trkpt lat="45.57539" lon="6.0807">
        <ele>1168.351807</ele>
        <time>2011-09-25T11:25:59Z</time>
      </trkpt>
      <trkpt lat="45.57548" lon="6.08071">
        <ele>1169.997803</ele>
        <time>2011-09-25T11:26:07Z</time>
      </trkpt>
      <trkpt lat="45.57558" lon="6.08072">
        <ele>1171.5354</ele>
        <time>2011-09-25T11:26:16Z</time>
      </trkpt>
      <trkpt lat="45.57567" lon="6.08074">
        <ele>1172.856323</ele>
        <time>2011-09-25T11:26:26Z</time>
      </trkpt>
      <trkpt lat="45.57577" lon="6.08075">
        <ele>1174.240234</ele>
        <time>2011-09-25T11:26:35Z</time>
      </trkpt>
      <trkpt lat="45.57586" lon="6.08074">
        <ele>1175.673096</ele>
        <time>2011-09-25T11:26:45Z</time>
      </trkpt>
      <trkpt lat="45.57595" lon="6.08078">
        <ele>1176.612305</ele>
        <time>2011-09-25T11:26:56Z</time>
      </trkpt>
      <trkpt lat="45.57604" lon="6.08073">
        <ele>1176.994141</ele>
        <time>2011-09-25T11:27:04Z</time>
      </trkpt>
      <trkpt lat="45.57613" lon="6.0807">
        <ele>1177.154785</ele>
        <time>2011-09-25T11:27:18Z</time>
      </trkpt>
      <trkpt lat="45.57623" lon="6.08069">
        <ele>1177.46814</ele>
        <time>2011-09-25T11:27:32Z</time>
      </trkpt>
      <trkpt lat="45.57631" lon="6.08064">
        <ele>1178.340088</ele>
        <time>2011-09-25T11:27:44Z</time>
      </trkpt>
      <trkpt lat="45.57641" lon="6.08062">
        <ele>1179.05188</ele>
        <time>2011-09-25T11:27:53Z</time>
      </trkpt>
      <trkpt lat="45.5765" lon="6.0806">
        <ele>1179.874756</ele>
        <time>2011-09-25T11:28:04Z</time>
      </trkpt>
      <trkpt lat="45.57659" lon="6.08063">
        <ele>1181.320923</ele>
        <time>2011-09-25T11:28:18Z</time>
      </trkpt>
      <trkpt lat="45.57669" lon="6.08063">
        <ele>1182.339111</ele>
        <time>2011-09-25T11:28:26Z</time>
      </trkpt>
      <trkpt lat="45.57678" lon="6.08056">
        <ele>1183.198364</ele>
        <time>2011-09-25T11:28:34Z</time>
      </trkpt>
      <trkpt lat="45.57687" lon="6.08053">
        <ele>1184.111206</ele>
        <time>2011-09-25T11:28:45Z</time>
      </trkpt>
      <trkpt lat="45.57697" lon="6.08062">
        <ele>1189.368896</ele>
        <time>2011-09-25T11:29:18Z</time>
      </trkpt>
      <trkpt lat="45.57697" lon="6.08062">
        <ele>1189.420166</ele>
        <time>2011-09-25T11:29:19Z</time>
      </trkpt>
      <trkpt lat="45.57705" lon="6.08069">
        <ele>1195.312866</ele>
        <time>2011-09-25T11:29:41Z</time>
      </trkpt>
      <trkpt lat="45.57713" lon="6.08074">
        <ele>1198.337646</ele>
        <time>2011-09-25T11:30:02Z</time>
      </trkpt>
      <trkpt lat="45.57721" lon="6.08083">
        <ele>1199.446777</ele>
        <time>2011-09-25T11:30:14Z</time>
      </trkpt>
      <trkpt lat="45.57729" lon="6.08088">
        <ele>1200.131714</ele>
        <time>2011-09-25T11:30:24Z</time>
      </trkpt>
      <trkpt lat="45.57737" lon="6.08096">
        <ele>1200.974243</ele>
        <time>2011-09-25T11:30:35Z</time>
      </trkpt>
      <trkpt lat="45.57743" lon="6.08106">
        <ele>1201.975342</ele>
        <time>2011-09-25T11:30:43Z</time>
      </trkpt>
      <trkpt lat="45.57752" lon="6.08112">
        <ele>1203.174316</ele>
        <time>2011-09-25T11:30:53Z</time>
      </trkpt>
      <trkpt lat="45.5776" lon="6.08118">
        <ele>1204.108276</ele>
        <time>2011-09-25T11:31:00Z</time>
      </trkpt>
      <trkpt lat="45.57769" lon="6.08123">
        <ele>1205.248901</ele>
        <time>2011-09-25T11:31:10Z</time>
      </trkpt>
      <trkpt lat="45.57779" lon="6.08123">
        <ele>1206.356812</ele>
        <time>2011-09-25T11:31:21Z</time>
      </trkpt>
      <trkpt lat="45.57788" lon="6.08127">
        <ele>1207.86145</ele>
        <time>2011-09-25T11:31:33Z</time>
      </trkpt>
      <trkpt lat="45.57797" lon="6.08125">
        <ele>1209.157349</ele>
        <time>2011-09-25T11:31:44Z</time>
      </trkpt>
      <trkpt lat="45.57807" lon="6.08122">
        <ele>1210.593872</ele>
        <time>2011-09-25T11:31:54Z</time>
      </trkpt>
      <trkpt lat="45.57816" lon="6.08115">
        <ele>1211.894531</ele>
        <time>2011-09-25T11:32:03Z</time>
      </trkpt>
      <trkpt lat="45.57824" lon="6.08108">
        <ele>1213.331665</ele>
        <time>2011-09-25T11:32:13Z</time>
      </trkpt>
      <trkpt lat="45.57831" lon="6.08098">
        <ele>1214.718506</ele>
        <time>2011-09-25T11:32:22Z</time>
      </trkpt>
      <trkpt lat="45.57837" lon="6.08089">
        <ele>1216.799683</ele>
        <time>2011-09-25T11:32:38Z</time>
      </trkpt>
      <trkpt lat="45.57842" lon="6.08078">
        <ele>1218.203735</ele>
        <time>2011-09-25T11:32:48Z</time>
      </trkpt>
      <trkpt lat="45.57849" lon="6.08066">
        <ele>1219.648071</ele>
        <time>2011-09-25T11:32:59Z</time>
      </trkpt>
      <trkpt lat="45.57853" lon="6.08055">
        <ele>1220.499023</ele>
        <time>2011-09-25T11:33:07Z</time>
      </trkpt>
      <trkpt lat="45.57856" lon="6.08042">
        <ele>1221.940796</ele>
        <time>2011-09-25T11:33:15Z</time>
      </trkpt>
      <trkpt lat="45.57861" lon="6.0803">
        <ele>1223.583496</ele>
        <time>2011-09-25T11:33:23Z</time>
      </trkpt>
      <trkpt lat="45.57867" lon="6.08019">
        <ele>1225.922485</ele>
        <time>2011-09-25T11:33:35Z</time>
      </trkpt>
      <trkpt lat="45.57875" lon="6.08014">
        <ele>1227.238647</ele>
        <time>2011-09-25T11:33:43Z</time>
      </trkpt>
      <trkpt lat="45.57881" lon="6.08004">
        <ele>1228.398438</ele>
        <time>2011-09-25T11:33:51Z</time>
      </trkpt>
      <trkpt lat="45.5789" lon="6.08001">
        <ele>1229.726807</ele>
        <time>2011-09-25T11:34:02Z</time>
      </trkpt>
      <trkpt lat="45.579" lon="6.08002">
        <ele>1230.478149</ele>
        <time>2011-09-25T11:34:10Z</time>
      </trkpt>
      <trkpt lat="45.57909" lon="6.08005">
        <ele>1231.087646</ele>
        <time>2011-09-25T11:34:17Z</time>
      </trkpt>
      <trkpt lat="45.57911" lon="6.08006">
        <ele>1231.21106</ele>
        <time>2011-09-25T11:34:19Z</time>
      </trkpt>
      <trkpt lat="45.5792" lon="6.08005">
        <ele>1232.60437</ele>
        <time>2011-09-25T11:34:52Z</time>
      </trkpt>
      <trkpt lat="45.57928" lon="6.08011">
        <ele>1232.827271</ele>
        <time>2011-09-25T11:35:13Z</time>
      </trkpt>
      <trkpt lat="45.57936" lon="6.08018">
        <ele>1232.975708</ele>
        <time>2011-09-25T11:35:22Z</time>
      </trkpt>
      <trkpt lat="45.57945" lon="6.0802">
        <ele>1233.294312</ele>
        <time>2011-09-25T11:35:35Z</time>
      </trkpt>
      <trkpt lat="45.57953" lon="6.08028">
        <ele>1233.533691</ele>
        <time>2011-09-25T11:35:48Z</time>
      </trkpt>
      <trkpt lat="45.5796" lon="6.08037">
        <ele>1233.6521</ele>
        <time>2011-09-25T11:35:59Z</time>
      </trkpt>
      <trkpt lat="45.57966" lon="6.08047">
        <ele>1234.119019</ele>
        <time>2011-09-25T11:36:12Z</time>
      </trkpt>
      <trkpt lat="45.57974" lon="6.08055">
        <ele>1234.483276</ele>
        <time>2011-09-25T11:36:21Z</time>
      </trkpt>
      <trkpt lat="45.57984" lon="6.08055">
        <ele>1235.017456</ele>
        <time>2011-09-25T11:36:35Z</time>
      </trkpt>
      <trkpt lat="45.57994" lon="6.08054">
        <ele>1235.539917</ele>
        <time>2011-09-25T11:36:45Z</time>
      </trkpt>
      <trkpt lat="45.57998" lon="6.08039">
        <ele>1236.424316</ele>
        <time>2011-09-25T11:37:24Z</time>
      </trkpt>
      <trkpt lat="45.57998" lon="6.08039">
        <ele>1236.545532</ele>
        <time>2011-09-25T11:37:27Z</time>
      </trkpt>
      <trkpt lat="45.58004" lon="6.0805">
        <ele>1238.447021</ele>
        <time>2011-09-25T11:37:57Z</time>
      </trkpt>
      <trkpt lat="45.57999" lon="6.08039">
        <ele>1245.35083</ele>
        <time>2011-09-25T11:38:36Z</time>
      </trkpt>
      <trkpt lat="45.57995" lon="6.08026">
        <ele>1245.772461</ele>
        <time>2011-09-25T11:38:47Z</time>
      </trkpt>
      <trkpt lat="45.57989" lon="6.08015">
        <ele>1246.131226</ele>
        <time>2011-09-25T11:38:55Z</time>
      </trkpt>
      <trkpt lat="45.57983" lon="6.08002">
        <ele>1246.366455</ele>
        <time>2011-09-25T11:39:02Z</time>
      </trkpt>
      <trkpt lat="45.57978" lon="6.07989">
        <ele>1246.567505</ele>
        <time>2011-09-25T11:39:08Z</time>
      </trkpt>
      <trkpt lat="45.57975" lon="6.07976">
        <ele>1246.856689</ele>
        <time>2011-09-25T11:39:15Z</time>
      </trkpt>
      <trkpt lat="45.57969" lon="6.07965">
        <ele>1247.533936</ele>
        <time>2011-09-25T11:39:25Z</time>
      </trkpt>
      <trkpt lat="45.57963" lon="6.07954">
        <ele>1248.657349</ele>
        <time>2011-09-25T11:39:38Z</time>
      </trkpt>
      <trkpt lat="45.57953" lon="6.07954">
        <ele>1249.241577</ele>
        <time>2011-09-25T11:39:45Z</time>
      </trkpt>
      <trkpt lat="45.57945" lon="6.07948">
        <ele>1249.891846</ele>
        <time>2011-09-25T11:39:55Z</time>
      </trkpt>
      <trkpt lat="45.57936" lon="6.07941">
        <ele>1250.29834</ele>
        <time>2011-09-25T11:40:03Z</time>
      </trkpt>
      <trkpt lat="45.57929" lon="6.07931">
        <ele>1250.601929</ele>
        <time>2011-09-25T11:40:14Z</time>
      </trkpt>
      <trkpt lat="45.57922" lon="6.07923">
        <ele>1250.869873</ele>
        <time>2011-09-25T11:40:27Z</time>
      </trkpt>
      <trkpt lat="45.57917" lon="6.07911">
        <ele>1251.138794</ele>
        <time>2011-09-25T11:40:40Z</time>
      </trkpt>
      <trkpt lat="45.57912" lon="6.07901">
        <ele>1251.412231</ele>
        <time>2011-09-25T11:40:58Z</time>
      </trkpt>
      <trkpt lat="45.57904" lon="6.07892">
        <ele>1251.427368</ele>
        <time>2011-09-25T11:41:05Z</time>
      </trkpt>
      <trkpt lat="45.57903" lon="6.07891">
        <ele>1251.4198</ele>
        <time>2011-09-25T11:41:06Z</time>
      </trkpt>
      <trkpt lat="45.57896" lon="6.07878">
        <ele>1251.605957</ele>
        <time>2011-09-25T11:41:20Z</time>
      </trkpt>
      <trkpt lat="45.57888" lon="6.07872">
        <ele>1251.780884</ele>
        <time>2011-09-25T11:41:31Z</time>
      </trkpt>
      <trkpt lat="45.57886" lon="6.0787">
        <ele>1251.805786</ele>
        <time>2011-09-25T11:41:33Z</time>
      </trkpt>
      <trkpt lat="45.57879" lon="6.07862">
        <ele>1251.902954</ele>
        <time>2011-09-25T11:41:40Z</time>
      </trkpt>
      <trkpt lat="45.57875" lon="6.0786">
        <ele>1251.948608</ele>
        <time>2011-09-25T11:41:43Z</time>
      </trkpt>
      <trkpt lat="45.57864" lon="6.07869">
        <ele>1252.213379</ele>
        <time>2011-09-25T11:41:55Z</time>
      </trkpt>
      <trkpt lat="45.57864" lon="6.07869">
        <ele>1252.38501</ele>
        <time>2011-09-25T11:41:57Z</time>
      </trkpt>
      <trkpt lat="45.57856" lon="6.07878">
        <ele>1252.777588</ele>
        <time>2011-09-25T11:42:02Z</time>
      </trkpt>
      <trkpt lat="45.57848" lon="6.07884">
        <ele>1253.287354</ele>
        <time>2011-09-25T11:42:10Z</time>
      </trkpt>
      <trkpt lat="45.57841" lon="6.07892">
        <ele>1253.720703</ele>
        <time>2011-09-25T11:42:17Z</time>
      </trkpt>
      <trkpt lat="45.57837" lon="6.07906">
        <ele>1254.299683</ele>
        <time>2011-09-25T11:42:30Z</time>
      </trkpt>
      <trkpt lat="45.57837" lon="6.07908">
        <ele>1254.368652</ele>
        <time>2011-09-25T11:42:31Z</time>
      </trkpt>
      <trkpt lat="45.57827" lon="6.07909">
        <ele>1255.077271</ele>
        <time>2011-09-25T11:42:40Z</time>
      </trkpt>
      <trkpt lat="45.57826" lon="6.07909">
        <ele>1255.158813</ele>
        <time>2011-09-25T11:42:41Z</time>
      </trkpt>
      <trkpt lat="45.57816" lon="6.07908">
        <ele>1257.075195</ele>
        <time>2011-09-25T11:43:03Z</time>
      </trkpt>
      <trkpt lat="45.57805" lon="6.07906">
        <ele>1258.534302</ele>
        <time>2011-09-25T11:43:17Z</time>
      </trkpt>
      <trkpt lat="45.57796" lon="6.07901">
        <ele>1260.171387</ele>
        <time>2011-09-25T11:43:27Z</time>
      </trkpt>
      <trkpt lat="45.57787" lon="6.07897">
        <ele>1261.963745</ele>
        <time>2011-09-25T11:43:36Z</time>
      </trkpt>
      <trkpt lat="45.57778" lon="6.07895">
        <ele>1265.674316</ele>
        <time>2011-09-25T11:44:00Z</time>
      </trkpt>
      <trkpt lat="45.57769" lon="6.07899">
        <ele>1269.827515</ele>
        <time>2011-09-25T11:44:22Z</time>
      </trkpt>
      <trkpt lat="45.57766" lon="6.07887">
        <ele>1272.452393</ele>
        <time>2011-09-25T11:44:38Z</time>
      </trkpt>
      <trkpt lat="45.57764" lon="6.07874">
        <ele>1273.989746</ele>
        <time>2011-09-25T11:44:49Z</time>
      </trkpt>
      <trkpt lat="45.57761" lon="6.0786">
        <ele>1274.820679</ele>
        <time>2011-09-25T11:45:00Z</time>
      </trkpt>
      <trkpt lat="45.57761" lon="6.07846">
        <ele>1275.818481</ele>
        <time>2011-09-25T11:45:10Z</time>
      </trkpt>
      <trkpt lat="45.57756" lon="6.07835">
        <ele>1277.289185</ele>
        <time>2011-09-25T11:45:21Z</time>
      </trkpt>
      <trkpt lat="45.57752" lon="6.07822">
        <ele>1278.569092</ele>
        <time>2011-09-25T11:45:32Z</time>
      </trkpt>
      <trkpt lat="45.57747" lon="6.07811">
        <ele>1279.462402</ele>
        <time>2011-09-25T11:45:43Z</time>
      </trkpt>
      <trkpt lat="45.57739" lon="6.07804">
        <ele>1279.980469</ele>
        <time>2011-09-25T11:45:52Z</time>
      </trkpt>
      <trkpt lat="45.57734" lon="6.07791">
        <ele>1280.705811</ele>
        <time>2011-09-25T11:46:02Z</time>
      </trkpt>
      <trkpt lat="45.57724" lon="6.07788">
        <ele>1281.890259</ele>
        <time>2011-09-25T11:46:20Z</time>
      </trkpt>
      <trkpt lat="45.57715" lon="6.07785">
        <ele>1282.886353</ele>
        <time>2011-09-25T11:46:33Z</time>
      </trkpt>
      <trkpt lat="45.57706" lon="6.07787">
        <ele>1284.022949</ele>
        <time>2011-09-25T11:46:47Z</time>
      </trkpt>
      <trkpt lat="45.57705" lon="6.07785">
        <ele>1284.151123</ele>
        <time>2011-09-25T11:46:48Z</time>
      </trkpt>
      <trkpt lat="45.57695" lon="6.07786">
        <ele>1284.8396</ele>
        <time>2011-09-25T11:46:52Z</time>
      </trkpt>
      <trkpt lat="45.57686" lon="6.07799">
        <ele>1285.841553</ele>
        <time>2011-09-25T11:46:58Z</time>
      </trkpt>
      <trkpt lat="45.57678" lon="6.07807">
        <ele>1287.626709</ele>
        <time>2011-09-25T11:47:04Z</time>
      </trkpt>
      <trkpt lat="45.57668" lon="6.07813">
        <ele>1289.967407</ele>
        <time>2011-09-25T11:47:18Z</time>
      </trkpt>
      <trkpt lat="45.57659" lon="6.07812">
        <ele>1293.776978</ele>
        <time>2011-09-25T11:47:28Z</time>
      </trkpt>
      <trkpt lat="45.5765" lon="6.07808">
        <ele>1297.34082</ele>
        <time>2011-09-25T11:47:38Z</time>
      </trkpt>
      <trkpt lat="45.57643" lon="6.07795">
        <ele>1302.336426</ele>
        <time>2011-09-25T11:47:55Z</time>
      </trkpt>
      <trkpt lat="45.57652" lon="6.07793">
        <ele>1304.874756</ele>
        <time>2011-09-25T11:48:08Z</time>
      </trkpt>
      <trkpt lat="45.57662" lon="6.07794">
        <ele>1307.399048</ele>
        <time>2011-09-25T11:48:23Z</time>
      </trkpt>
      <trkpt lat="45.57671" lon="6.07789">
        <ele>1309.343628</ele>
        <time>2011-09-25T11:48:35Z</time>
      </trkpt>
      <trkpt lat="45.5768" lon="6.07782">
        <ele>1310.843262</ele>
        <time>2011-09-25T11:48:46Z</time>
      </trkpt>
      <trkpt lat="45.57689" lon="6.07777">
        <ele>1312.361572</ele>
        <time>2011-09-25T11:48:57Z</time>
      </trkpt>
      <trkpt lat="45.577" lon="6.07767">
        <ele>1314.427612</ele>
        <time>2011-09-25T11:49:13Z</time>
      </trkpt>
      <trkpt lat="45.57709" lon="6.07766">
        <ele>1315.809692</ele>
        <time>2011-09-25T11:49:24Z</time>
      </trkpt>
      <trkpt lat="45.57718" lon="6.07763">
        <ele>1316.852417</ele>
        <time>2011-09-25T11:49:33Z</time>
      </trkpt>
      <trkpt lat="45.57727" lon="6.07761">
        <ele>1318.033691</ele>
        <time>2011-09-25T11:49:44Z</time>
      </trkpt>
      <trkpt lat="45.57741" lon="6.07765">
        <ele>1319.614868</ele>
        <time>2011-09-25T11:50:03Z</time>
      </trkpt>
      <trkpt lat="45.57749" lon="6.07772">
        <ele>1320.312988</ele>
        <time>2011-09-25T11:50:12Z</time>
      </trkpt>
      <trkpt lat="45.57758" lon="6.07775">
        <ele>1321.054321</ele>
        <time>2011-09-25T11:50:23Z</time>
      </trkpt>
      <trkpt lat="45.57768" lon="6.07778">
        <ele>1321.683594</ele>
        <time>2011-09-25T11:50:34Z</time>
      </trkpt>
      <trkpt lat="45.57777" lon="6.0778">
        <ele>1322.535645</ele>
        <time>2011-09-25T11:50:43Z</time>
      </trkpt>
      <trkpt lat="45.57787" lon="6.0778">
        <ele>1323.859985</ele>
        <time>2011-09-25T11:50:54Z</time>
      </trkpt>
      <trkpt lat="45.57795" lon="6.07774">
        <ele>1325.221436</ele>
        <time>2011-09-25T11:51:05Z</time>
      </trkpt>
      <trkpt lat="45.57806" lon="6.07769">
        <ele>1326.679932</ele>
        <time>2011-09-25T11:51:19Z</time>
      </trkpt>
      <trkpt lat="45.57806" lon="6.07769">
        <ele>1326.762817</ele>
        <time>2011-09-25T11:51:20Z</time>
      </trkpt>
      <trkpt lat="45.57816" lon="6.07765">
        <ele>1327.336548</ele>
        <time>2011-09-25T11:51:30Z</time>
      </trkpt>
      <trkpt lat="45.57823" lon="6.07755">
        <ele>1327.963501</ele>
        <time>2011-09-25T11:51:46Z</time>
      </trkpt>
      <trkpt lat="45.57831" lon="6.07745">
        <ele>1328.390137</ele>
        <time>2011-09-25T11:51:55Z</time>
      </trkpt>
      <trkpt lat="45.57835" lon="6.07733">
        <ele>1329.180542</ele>
        <time>2011-09-25T11:52:05Z</time>
      </trkpt>
      <trkpt lat="45.57843" lon="6.07726">
        <ele>1330.360474</ele>
        <time>2011-09-25T11:52:13Z</time>
      </trkpt>
      <trkpt lat="45.57852" lon="6.07719">
        <ele>1331.900757</ele>
        <time>2011-09-25T11:52:26Z</time>
      </trkpt>
      <trkpt lat="45.57861" lon="6.07714">
        <ele>1333.883545</ele>
        <time>2011-09-25T11:52:42Z</time>
      </trkpt>
      <trkpt lat="45.57869" lon="6.07707">
        <ele>1335.545776</ele>
        <time>2011-09-25T11:52:53Z</time>
      </trkpt>
      <trkpt lat="45.5787" lon="6.07706">
        <ele>1335.744507</ele>
        <time>2011-09-25T11:52:54Z</time>
      </trkpt>
      <trkpt lat="45.57876" lon="6.07696">
        <ele>1337.700928</ele>
        <time>2011-09-25T11:53:05Z</time>
      </trkpt>
      <trkpt lat="45.57878" lon="6.07682">
        <ele>1339.461914</ele>
        <time>2011-09-25T11:53:15Z</time>
      </trkpt>
      <trkpt lat="45.5788" lon="6.07669">
        <ele>1340.709595</ele>
        <time>2011-09-25T11:53:27Z</time>
      </trkpt>
      <trkpt lat="45.57882" lon="6.07656">
        <ele>1342.551392</ele>
        <time>2011-09-25T11:53:45Z</time>
      </trkpt>
      <trkpt lat="45.57884" lon="6.07643">
        <ele>1343.268188</ele>
        <time>2011-09-25T11:53:56Z</time>
      </trkpt>
      <trkpt lat="45.57882" lon="6.07629">
        <ele>1344.084351</ele>
        <time>2011-09-25T11:54:07Z</time>
      </trkpt>
      <trkpt lat="45.57884" lon="6.07615">
        <ele>1344.63623</ele>
        <time>2011-09-25T11:54:13Z</time>
      </trkpt>
      <trkpt lat="45.57889" lon="6.07602">
        <ele>1345.341553</ele>
        <time>2011-09-25T11:54:22Z</time>
      </trkpt>
      <trkpt lat="45.57898" lon="6.07596">
        <ele>1345.958862</ele>
        <time>2011-09-25T11:54:30Z</time>
      </trkpt>
      <trkpt lat="45.57908" lon="6.0759">
        <ele>1347.926514</ele>
        <time>2011-09-25T11:54:48Z</time>
      </trkpt>
      <trkpt lat="45.57908" lon="6.0759">
        <ele>1347.939941</ele>
        <time>2011-09-25T11:54:49Z</time>
      </trkpt>
      <trkpt lat="45.57917" lon="6.07585">
        <ele>1348.642578</ele>
        <time>2011-09-25T11:55:00Z</time>
      </trkpt>
      <trkpt lat="45.57926" lon="6.07583">
        <ele>1349.702759</ele>
        <time>2011-09-25T11:55:13Z</time>
      </trkpt>
      <trkpt lat="45.57936" lon="6.0758">
        <ele>1350.823975</ele>
        <time>2011-09-25T11:55:27Z</time>
      </trkpt>
      <trkpt lat="45.57936" lon="6.0758">
        <ele>1350.994263</ele>
        <time>2011-09-25T11:55:29Z</time>
      </trkpt>
      <trkpt lat="45.57946" lon="6.07577">
        <ele>1351.910767</ele>
        <time>2011-09-25T11:55:42Z</time>
      </trkpt>
      <trkpt lat="45.57953" lon="6.07569">
        <ele>1352.439575</ele>
        <time>2011-09-25T11:55:52Z</time>
      </trkpt>
      <trkpt lat="45.57962" lon="6.07563">
        <ele>1352.628906</ele>
        <time>2011-09-25T11:56:04Z</time>
      </trkpt>
      <trkpt lat="45.5797" lon="6.07556">
        <ele>1352.851074</ele>
        <time>2011-09-25T11:56:14Z</time>
      </trkpt>
      <trkpt lat="45.57979" lon="6.07553">
        <ele>1353.626709</ele>
        <time>2011-09-25T11:56:44Z</time>
      </trkpt>
      <trkpt lat="45.57988" lon="6.07548">
        <ele>1354.358643</ele>
        <time>2011-09-25T11:56:55Z</time>
      </trkpt>
      <trkpt lat="45.57983" lon="6.07537">
        <ele>1356.540283</ele>
        <time>2011-09-25T11:57:12Z</time>
      </trkpt>
      <trkpt lat="45.57973" lon="6.0754">
        <ele>1358.009766</ele>
        <time>2011-09-25T11:57:30Z</time>
      </trkpt>
      <trkpt lat="45.57975" lon="6.07527">
        <ele>1362.966797</ele>
        <time>2011-09-25T11:57:59Z</time>
      </trkpt>
      <trkpt lat="45.57971" lon="6.07515">
        <ele>1365.842773</ele>
        <time>2011-09-25T11:58:11Z</time>
      </trkpt>
      <trkpt lat="45.57962" lon="6.07519">
        <ele>1366.999268</ele>
        <time>2011-09-25T11:58:22Z</time>
      </trkpt>
      <trkpt lat="45.57959" lon="6.07519">
        <ele>1367.036255</ele>
        <time>2011-09-25T11:58:25Z</time>
      </trkpt>
      <trkpt lat="45.5795" lon="6.0752">
        <ele>1366.71936</ele>
        <time>2011-09-25T11:58:36Z</time>
      </trkpt>
      <trkpt lat="45.5794" lon="6.07515">
        <ele>1366.368408</ele>
        <time>2011-09-25T11:58:46Z</time>
      </trkpt>
      <trkpt lat="45.57939" lon="6.07513">
        <ele>1366.227295</ele>
        <time>2011-09-25T11:58:48Z</time>
      </trkpt>
      <trkpt lat="45.5793" lon="6.07509">
        <ele>1364.886719</ele>
        <time>2011-09-25T11:59:01Z</time>
      </trkpt>
      <trkpt lat="45.57937" lon="6.07501">
        <ele>1365.670776</ele>
        <time>2011-09-25T11:59:21Z</time>
      </trkpt>
      <trkpt lat="45.57935" lon="6.07488">
        <ele>1367.260864</ele>
        <time>2011-09-25T11:59:33Z</time>
      </trkpt>
      <trkpt lat="45.57925" lon="6.07486">
        <ele>1368.559937</ele>
        <time>2011-09-25T11:59:45Z</time>
      </trkpt>
      <trkpt lat="45.57916" lon="6.07485">
        <ele>1371.018433</ele>
        <time>2011-09-25T12:00:08Z</time>
      </trkpt>
      <trkpt lat="45.57906" lon="6.07483">
        <ele>1371.684326</ele>
        <time>2011-09-25T12:00:19Z</time>
      </trkpt>
      <trkpt lat="45.57895" lon="6.07482">
        <ele>1372.643066</ele>
        <time>2011-09-25T12:00:38Z</time>
      </trkpt>
      <trkpt lat="45.57886" lon="6.07481">
        <ele>1373.312378</ele>
        <time>2011-09-25T12:00:45Z</time>
      </trkpt>
      <trkpt lat="45.57876" lon="6.07482">
        <ele>1374.388428</ele>
        <time>2011-09-25T12:00:57Z</time>
      </trkpt>
      <trkpt lat="45.57867" lon="6.07485">
        <ele>1375.24939</ele>
        <time>2011-09-25T12:01:05Z</time>
      </trkpt>
      <trkpt lat="45.57858" lon="6.07488">
        <ele>1376.306519</ele>
        <time>2011-09-25T12:01:22Z</time>
      </trkpt>
      <trkpt lat="45.57848" lon="6.07485">
        <ele>1376.625854</ele>
        <time>2011-09-25T12:01:31Z</time>
      </trkpt>
      <trkpt lat="45.57839" lon="6.07483">
        <ele>1376.834229</ele>
        <time>2011-09-25T12:01:46Z</time>
      </trkpt>
      <trkpt lat="45.5783" lon="6.07483">
        <ele>1377.19812</ele>
        <time>2011-09-25T12:01:57Z</time>
      </trkpt>
      <trkpt lat="45.57821" lon="6.07487">
        <ele>1377.709229</ele>
        <time>2011-09-25T12:02:07Z</time>
      </trkpt>
      <trkpt lat="45.57811" lon="6.07485">
        <ele>1377.979126</ele>
        <time>2011-09-25T12:02:13Z</time>
      </trkpt>
      <trkpt lat="45.57803" lon="6.07492">
        <ele>1378.384888</ele>
        <time>2011-09-25T12:02:21Z</time>
      </trkpt>
      <trkpt lat="45.57794" lon="6.07499">
        <ele>1379.249878</ele>
        <time>2011-09-25T12:02:31Z</time>
      </trkpt>
      <trkpt lat="45.57787" lon="6.07505">
        <ele>1379.758667</ele>
        <time>2011-09-25T12:02:37Z</time>
      </trkpt>
      <trkpt lat="45.57777" lon="6.07512">
        <ele>1380.355591</ele>
        <time>2011-09-25T12:02:45Z</time>
      </trkpt>
      <trkpt lat="45.57769" lon="6.07517">
        <ele>1380.809692</ele>
        <time>2011-09-25T12:02:55Z</time>
      </trkpt>
      <trkpt lat="45.57763" lon="6.07527">
        <ele>1382.565674</ele>
        <time>2011-09-25T12:03:11Z</time>
      </trkpt>
      <trkpt lat="45.57754" lon="6.07523">
        <ele>1383.203125</ele>
        <time>2011-09-25T12:03:18Z</time>
      </trkpt>
      <trkpt lat="45.57745" lon="6.07521">
        <ele>1383.662842</ele>
        <time>2011-09-25T12:03:30Z</time>
      </trkpt>
      <trkpt lat="45.57735" lon="6.07519">
        <ele>1384.04541</ele>
        <time>2011-09-25T12:03:39Z</time>
      </trkpt>
      <trkpt lat="45.57725" lon="6.07518">
        <ele>1384.368408</ele>
        <time>2011-09-25T12:03:52Z</time>
      </trkpt>
      <trkpt lat="45.57717" lon="6.07513">
        <ele>1384.624634</ele>
        <time>2011-09-25T12:04:08Z</time>
      </trkpt>
      <trkpt lat="45.57712" lon="6.07525">
        <ele>1384.895508</ele>
        <time>2011-09-25T12:04:17Z</time>
      </trkpt>
      <trkpt lat="45.57715" lon="6.07537">
        <ele>1385.187866</ele>
        <time>2011-09-25T12:04:27Z</time>
      </trkpt>
      <trkpt lat="45.57724" lon="6.07537">
        <ele>1386.280396</ele>
        <time>2011-09-25T12:04:35Z</time>
      </trkpt>
      <trkpt lat="45.57732" lon="6.07542">
        <ele>1389.33728</ele>
        <time>2011-09-25T12:04:46Z</time>
      </trkpt>
      <trkpt lat="45.57737" lon="6.07553">
        <ele>1391.735229</ele>
        <time>2011-09-25T12:04:55Z</time>
      </trkpt>
      <trkpt lat="45.57746" lon="6.07551">
        <ele>1397.463135</ele>
        <time>2011-09-25T12:05:20Z</time>
      </trkpt>
      <trkpt lat="45.57755" lon="6.07555">
        <ele>1398.927368</ele>
        <time>2011-09-25T12:05:33Z</time>
      </trkpt>
      <trkpt lat="45.57764" lon="6.07554">
        <ele>1399.414551</ele>
        <time>2011-09-25T12:05:50Z</time>
      </trkpt>
      <trkpt lat="45.57773" lon="6.07556">
        <ele>1399.219849</ele>
        <time>2011-09-25T12:06:08Z</time>
      </trkpt>
      <trkpt lat="45.57763" lon="6.07555">
        <ele>1398.485596</ele>
        <time>2011-09-25T12:06:44Z</time>
      </trkpt>
      <trkpt lat="45.57752" lon="6.07553">
        <ele>1398.417358</ele>
        <time>2011-09-25T12:06:56Z</time>
      </trkpt>
      <trkpt lat="45.57743" lon="6.07551">
        <ele>1398.248169</ele>
        <time>2011-09-25T12:08:30Z</time>
      </trkpt>
      <trkpt lat="45.57744" lon="6.07552">
        <ele>1398.241455</ele>
        <time>2011-09-25T12:08:31Z</time>
      </trkpt>
      <trkpt lat="45.57753" lon="6.07553">
        <ele>1398.444092</ele>
        <time>2011-09-25T12:08:47Z</time>
      </trkpt>
      <trkpt lat="45.5774" lon="6.07552">
        <ele>1399.504761</ele>
        <time>2011-09-25T12:09:18Z</time>
      </trkpt>
      <trkpt lat="45.57731" lon="6.07554">
        <ele>1399.693604</ele>
        <time>2011-09-25T12:09:26Z</time>
      </trkpt>
      <trkpt lat="45.57722" lon="6.07553">
        <ele>1399.626343</ele>
        <time>2011-09-25T12:09:57Z</time>
      </trkpt>
      <trkpt lat="45.57728" lon="6.07543">
        <ele>1397.498901</ele>
        <time>2011-09-25T12:11:29Z</time>
      </trkpt>
      <trkpt lat="45.5774" lon="6.07553">
        <ele>1397.117554</ele>
        <time>2011-09-25T12:12:23Z</time>
      </trkpt>
      <trkpt lat="45.5775" lon="6.07556">
        <ele>1396.943237</ele>
        <time>2011-09-25T12:12:26Z</time>
      </trkpt>
      <trkpt lat="45.5776" lon="6.07559">
        <ele>1396.793701</ele>
        <time>2011-09-25T12:12:29Z</time>
      </trkpt>
      <trkpt lat="45.57771" lon="6.07565">
        <ele>1396.615601</ele>
        <time>2011-09-25T12:12:33Z</time>
      </trkpt>
      <trkpt lat="45.5778" lon="6.07569">
        <ele>1396.496338</ele>
        <time>2011-09-25T12:12:37Z</time>
      </trkpt>
      <trkpt lat="45.57789" lon="6.0757">
        <ele>1396.391724</ele>
        <time>2011-09-25T12:12:42Z</time>
      </trkpt>
      <trkpt lat="45.57799" lon="6.07566">
        <ele>1396.288086</ele>
        <time>2011-09-25T12:12:49Z</time>
      </trkpt>
      <trkpt lat="45.57805" lon="6.07551">
        <ele>1396.213013</ele>
        <time>2011-09-25T12:13:11Z</time>
      </trkpt>
      <trkpt lat="45.5779" lon="6.07547">
        <ele>1396.166626</ele>
        <time>2011-09-25T12:13:17Z</time>
      </trkpt>
      <trkpt lat="45.5778" lon="6.07547">
        <ele>1396.167847</ele>
        <time>2011-09-25T12:13:19Z</time>
      </trkpt>
      <trkpt lat="45.57767" lon="6.07545">
        <ele>1396.188599</ele>
        <time>2011-09-25T12:13:23Z</time>
      </trkpt>
      <trkpt lat="45.57757" lon="6.07543">
        <ele>1396.202515</ele>
        <time>2011-09-25T12:13:31Z</time>
      </trkpt>
      <trkpt lat="45.57748" lon="6.07538">
        <ele>1396.412598</ele>
        <time>2011-09-25T12:13:37Z</time>
      </trkpt>
      <trkpt lat="45.57739" lon="6.07534">
        <ele>1396.783081</ele>
        <time>2011-09-25T12:13:47Z</time>
      </trkpt>
      <trkpt lat="45.5773" lon="6.07538">
        <ele>1396.985474</ele>
        <time>2011-09-25T12:14:02Z</time>
      </trkpt>
      <trkpt lat="45.57724" lon="6.07548">
        <ele>1396.899048</ele>
        <time>2011-09-25T12:14:23Z</time>
      </trkpt>
      <trkpt lat="45.57727" lon="6.07559">
        <ele>1396.835205</ele>
        <time>2011-09-25T12:14:35Z</time>
      </trkpt>
      <trkpt lat="45.57731" lon="6.07566">
        <ele>1397.122925</ele>
        <time>2011-09-25T12:14:59Z</time>
      </trkpt>
      <trkpt lat="45.57721" lon="6.07574">
        <ele>1397.338745</ele>
        <time>2011-09-25T12:15:30Z</time>
      </trkpt>
      <trkpt lat="45.5773" lon="6.07569">
        <ele>1398.426636</ele>
        <time>2011-09-25T12:15:57Z</time>
      </trkpt>
      <trkpt lat="45.57739" lon="6.07564">
        <ele>1398.543457</ele>
        <time>2011-09-25T12:16:11Z</time>
      </trkpt>
      <trkpt lat="45.57747" lon="6.07558">
        <ele>1398.254883</ele>
        <time>2011-09-25T12:16:24Z</time>
      </trkpt>
      <trkpt lat="45.57755" lon="6.07549">
        <ele>1398.006104</ele>
        <time>2011-09-25T12:16:37Z</time>
      </trkpt>
      <trkpt lat="45.57745" lon="6.07548">
        <ele>1397.761719</ele>
        <time>2011-09-25T12:17:00Z</time>
      </trkpt>
      <trkpt lat="45.57733" lon="6.07551">
        <ele>1397.891602</ele>
        <time>2011-09-25T12:17:21Z</time>
      </trkpt>
      <trkpt lat="45.57729" lon="6.07538">
        <ele>1398.12793</ele>
        <time>2011-09-25T12:17:39Z</time>
      </trkpt>
      <trkpt lat="45.57731" lon="6.0752">
        <ele>1398.149902</ele>
        <time>2011-09-25T12:17:59Z</time>
      </trkpt>
      <trkpt lat="45.57715" lon="6.07546">
        <ele>1397.913574</ele>
        <time>2011-09-25T12:18:06Z</time>
      </trkpt>
      <trkpt lat="45.57716" lon="6.07555">
        <ele>1397.744385</ele>
        <time>2011-09-25T12:18:07Z</time>
      </trkpt>
      <trkpt lat="45.57709" lon="6.07563">
        <ele>1397.467651</ele>
        <time>2011-09-25T12:18:12Z</time>
      </trkpt>
      <trkpt lat="45.57717" lon="6.0757">
        <ele>1397.605347</ele>
        <time>2011-09-25T12:18:21Z</time>
      </trkpt>
      <trkpt lat="45.57729" lon="6.07558">
        <ele>1398.781128</ele>
        <time>2011-09-25T12:18:32Z</time>
      </trkpt>
      <trkpt lat="45.57738" lon="6.07562">
        <ele>1403.021606</ele>
        <time>2011-09-25T12:18:59Z</time>
      </trkpt>
      <trkpt lat="45.57745" lon="6.07548">
        <ele>1419.794922</ele>
        <time>2011-09-25T12:23:44Z</time>
      </trkpt>
      <trkpt lat="45.5774" lon="6.07538">
        <ele>1418.758423</ele>
        <time>2011-09-25T12:28:56Z</time>
      </trkpt>
      <trkpt lat="45.57738" lon="6.07554">
        <ele>1417.225586</ele>
        <time>2011-09-25T12:29:45Z</time>
      </trkpt>
      <trkpt lat="45.57625" lon="6.07414">
        <ele>1373.578979</ele>
        <time>2011-09-25T12:38:31Z</time>
      </trkpt>
      <trkpt lat="45.57625" lon="6.07414">
        <ele>1373.578979</ele>
        <time>2011-09-25T12:38:32Z</time>
      </trkpt>
      <trkpt lat="45.57625" lon="6.07414">
        <ele>1373.578979</ele>
        <time>2011-09-25T12:38:33Z</time>
      </trkpt>
      <trkpt lat="45.57619" lon="6.07427">
        <ele>1402.308594</ele>
        <time>2011-09-25T12:38:35Z</time>
      </trkpt>
      <trkpt lat="45.57619" lon="6.07427">
        <ele>1402.308594</ele>
        <time>2011-09-25T12:38:40Z</time>
      </trkpt>
      <trkpt lat="45.5761" lon="6.0743">
        <ele>1401.207153</ele>
        <time>2011-09-25T12:38:42Z</time>
      </trkpt>
      <trkpt lat="45.57601" lon="6.07428">
        <ele>1400.60437</ele>
        <time>2011-09-25T12:38:55Z</time>
      </trkpt>
      <trkpt lat="45.57593" lon="6.07424">
        <ele>1392.707275</ele>
        <time>2011-09-25T12:39:15Z</time>
      </trkpt>
      <trkpt lat="45.57584" lon="6.0742">
        <ele>1392.895508</ele>
        <time>2011-09-25T12:39:39Z</time>
      </trkpt>
      <trkpt lat="45.57575" lon="6.07417">
        <ele>1392.990845</ele>
        <time>2011-09-25T12:39:52Z</time>
      </trkpt>
      <trkpt lat="45.57566" lon="6.07411">
        <ele>1393.238525</ele>
        <time>2011-09-25T12:40:06Z</time>
      </trkpt>
      <trkpt lat="45.57563" lon="6.07411">
        <ele>1393.368652</ele>
        <time>2011-09-25T12:40:09Z</time>
      </trkpt>
      <trkpt lat="45.57554" lon="6.07407">
        <ele>1394.056519</ele>
        <time>2011-09-25T12:40:19Z</time>
      </trkpt>
      <trkpt lat="45.57545" lon="6.07404">
        <ele>1395.06958</ele>
        <time>2011-09-25T12:40:27Z</time>
      </trkpt>
      <trkpt lat="45.57536" lon="6.07402">
        <ele>1396.154663</ele>
        <time>2011-09-25T12:40:36Z</time>
      </trkpt>
      <trkpt lat="45.57528" lon="6.07395">
        <ele>1397.161621</ele>
        <time>2011-09-25T12:40:45Z</time>
      </trkpt>
      <trkpt lat="45.5752" lon="6.07388">
        <ele>1398.950195</ele>
        <time>2011-09-25T12:41:00Z</time>
      </trkpt>
      <trkpt lat="45.57519" lon="6.07388">
        <ele>1399.069336</ele>
        <time>2011-09-25T12:41:01Z</time>
      </trkpt>
      <trkpt lat="45.57511" lon="6.0738">
        <ele>1400.214355</ele>
        <time>2011-09-25T12:41:13Z</time>
      </trkpt>
      <trkpt lat="45.57501" lon="6.07371">
        <ele>1401.302124</ele>
        <time>2011-09-25T12:41:30Z</time>
      </trkpt>
      <trkpt lat="45.57501" lon="6.07371">
        <ele>1401.487305</ele>
        <time>2011-09-25T12:41:32Z</time>
      </trkpt>
      <trkpt lat="45.57495" lon="6.07361">
        <ele>1402.521484</ele>
        <time>2011-09-25T12:41:53Z</time>
      </trkpt>
      <trkpt lat="45.57491" lon="6.07348">
        <ele>1403.395996</ele>
        <time>2011-09-25T12:42:06Z</time>
      </trkpt>
      <trkpt lat="45.57495" lon="6.07333">
        <ele>1404.536987</ele>
        <time>2011-09-25T12:42:12Z</time>
      </trkpt>
      <trkpt lat="45.57498" lon="6.07319">
        <ele>1406.347534</ele>
        <time>2011-09-25T12:42:25Z</time>
      </trkpt>
      <trkpt lat="45.57498" lon="6.07319">
        <ele>1406.369019</ele>
        <time>2011-09-25T12:42:26Z</time>
      </trkpt>
      <trkpt lat="45.57496" lon="6.07306">
        <ele>1410.852295</ele>
        <time>2011-09-25T12:43:02Z</time>
      </trkpt>
      <trkpt lat="45.57493" lon="6.07293">
        <ele>1413.22876</ele>
        <time>2011-09-25T12:43:13Z</time>
      </trkpt>
      <trkpt lat="45.57485" lon="6.07281">
        <ele>1416.418457</ele>
        <time>2011-09-25T12:43:28Z</time>
      </trkpt>
      <trkpt lat="45.57476" lon="6.07276">
        <ele>1418.673462</ele>
        <time>2011-09-25T12:43:44Z</time>
      </trkpt>
      <trkpt lat="45.57468" lon="6.07269">
        <ele>1420.602173</ele>
        <time>2011-09-25T12:43:54Z</time>
      </trkpt>
      <trkpt lat="45.57459" lon="6.07266">
        <ele>1423.320801</ele>
        <time>2011-09-25T12:44:08Z</time>
      </trkpt>
      <trkpt lat="45.5745" lon="6.07263">
        <ele>1425.543823</ele>
        <time>2011-09-25T12:44:20Z</time>
      </trkpt>
      <trkpt lat="45.57441" lon="6.07258">
        <ele>1427.242432</ele>
        <time>2011-09-25T12:44:29Z</time>
      </trkpt>
      <trkpt lat="45.57433" lon="6.07252">
        <ele>1428.9021</ele>
        <time>2011-09-25T12:44:38Z</time>
      </trkpt>
      <trkpt lat="45.57424" lon="6.07249">
        <ele>1430.745728</ele>
        <time>2011-09-25T12:45:10Z</time>
      </trkpt>
      <trkpt lat="45.57414" lon="6.0725">
        <ele>1433.0271</ele>
        <time>2011-09-25T12:45:49Z</time>
      </trkpt>
      <trkpt lat="45.57405" lon="6.07252">
        <ele>1434.063354</ele>
        <time>2011-09-25T12:46:03Z</time>
      </trkpt>
      <trkpt lat="45.57397" lon="6.07245">
        <ele>1434.419922</ele>
        <time>2011-09-25T12:46:12Z</time>
      </trkpt>
      <trkpt lat="45.57389" lon="6.07239">
        <ele>1434.833374</ele>
        <time>2011-09-25T12:46:24Z</time>
      </trkpt>
      <trkpt lat="45.5738" lon="6.07232">
        <ele>1434.950928</ele>
        <time>2011-09-25T12:46:33Z</time>
      </trkpt>
      <trkpt lat="45.57373" lon="6.07225">
        <ele>1435.092529</ele>
        <time>2011-09-25T12:46:45Z</time>
      </trkpt>
      <trkpt lat="45.57364" lon="6.0722">
        <ele>1435.736938</ele>
        <time>2011-09-25T12:46:58Z</time>
      </trkpt>
      <trkpt lat="45.57355" lon="6.07218">
        <ele>1436.555176</ele>
        <time>2011-09-25T12:47:27Z</time>
      </trkpt>
      <trkpt lat="45.57347" lon="6.07215">
        <ele>1437.04126</ele>
        <time>2011-09-25T12:47:42Z</time>
      </trkpt>
      <trkpt lat="45.57338" lon="6.0722">
        <ele>1437.083618</ele>
        <time>2011-09-25T12:47:53Z</time>
      </trkpt>
      <trkpt lat="45.5733" lon="6.07213">
        <ele>1437.38562</ele>
        <time>2011-09-25T12:48:21Z</time>
      </trkpt>
      <trkpt lat="45.5732" lon="6.07212">
        <ele>1437.380859</ele>
        <time>2011-09-25T12:48:32Z</time>
      </trkpt>
      <trkpt lat="45.57312" lon="6.07207">
        <ele>1437.500244</ele>
        <time>2011-09-25T12:48:45Z</time>
      </trkpt>
      <trkpt lat="45.57303" lon="6.07201">
        <ele>1437.70752</ele>
        <time>2011-09-25T12:48:58Z</time>
      </trkpt>
      <trkpt lat="45.57294" lon="6.07196">
        <ele>1438.253418</ele>
        <time>2011-09-25T12:49:12Z</time>
      </trkpt>
      <trkpt lat="45.57285" lon="6.07194">
        <ele>1439.156494</ele>
        <time>2011-09-25T12:49:26Z</time>
      </trkpt>
      <trkpt lat="45.57275" lon="6.07196">
        <ele>1440.188232</ele>
        <time>2011-09-25T12:49:40Z</time>
      </trkpt>
      <trkpt lat="45.57266" lon="6.07201">
        <ele>1441.424072</ele>
        <time>2011-09-25T12:49:57Z</time>
      </trkpt>
      <trkpt lat="45.57258" lon="6.07193">
        <ele>1443.233398</ele>
        <time>2011-09-25T12:50:18Z</time>
      </trkpt>
      <trkpt lat="45.57252" lon="6.07182">
        <ele>1445.952271</ele>
        <time>2011-09-25T12:50:42Z</time>
      </trkpt>
      <trkpt lat="45.57245" lon="6.07172">
        <ele>1447.271851</ele>
        <time>2011-09-25T12:50:54Z</time>
      </trkpt>
      <trkpt lat="45.57236" lon="6.07167">
        <ele>1450.376343</ele>
        <time>2011-09-25T12:51:21Z</time>
      </trkpt>
      <trkpt lat="45.57228" lon="6.07162">
        <ele>1453.867432</ele>
        <time>2011-09-25T12:51:36Z</time>
      </trkpt>
      <trkpt lat="45.57219" lon="6.07157">
        <ele>1456.250488</ele>
        <time>2011-09-25T12:51:48Z</time>
      </trkpt>
      <trkpt lat="45.5721" lon="6.07153">
        <ele>1458.125366</ele>
        <time>2011-09-25T12:51:56Z</time>
      </trkpt>
      <trkpt lat="45.57202" lon="6.07147">
        <ele>1460.171753</ele>
        <time>2011-09-25T12:52:08Z</time>
      </trkpt>
      <trkpt lat="45.57193" lon="6.07142">
        <ele>1462.429199</ele>
        <time>2011-09-25T12:52:23Z</time>
      </trkpt>
      <trkpt lat="45.57184" lon="6.07138">
        <ele>1465.193115</ele>
        <time>2011-09-25T12:52:36Z</time>
      </trkpt>
      <trkpt lat="45.57174" lon="6.07137">
        <ele>1468.267944</ele>
        <time>2011-09-25T12:52:58Z</time>
      </trkpt>
      <trkpt lat="45.57168" lon="6.07126">
        <ele>1472.006592</ele>
        <time>2011-09-25T12:53:20Z</time>
      </trkpt>
      <trkpt lat="45.57164" lon="6.07114">
        <ele>1475.855103</ele>
        <time>2011-09-25T12:53:45Z</time>
      </trkpt>
      <trkpt lat="45.5716" lon="6.07103">
        <ele>1475.942993</ele>
        <time>2011-09-25T12:54:12Z</time>
      </trkpt>
      <trkpt lat="45.57164" lon="6.07091">
        <ele>1476.657715</ele>
        <time>2011-09-25T12:54:38Z</time>
      </trkpt>
      <trkpt lat="45.57159" lon="6.07074">
        <ele>1477.675781</ele>
        <time>2011-09-25T12:55:02Z</time>
      </trkpt>
      <trkpt lat="45.57151" lon="6.07066">
        <ele>1478.952026</ele>
        <time>2011-09-25T12:55:18Z</time>
      </trkpt>
      <trkpt lat="45.57144" lon="6.07057">
        <ele>1480.865356</ele>
        <time>2011-09-25T12:55:33Z</time>
      </trkpt>
      <trkpt lat="45.57136" lon="6.07049">
        <ele>1482.656128</ele>
        <time>2011-09-25T12:55:52Z</time>
      </trkpt>
      <trkpt lat="45.57126" lon="6.07044">
        <ele>1489.696167</ele>
        <time>2011-09-25T12:57:43Z</time>
      </trkpt>
      <trkpt lat="45.57137" lon="6.07044">
        <ele>1491.055664</ele>
        <time>2011-09-25T12:58:38Z</time>
      </trkpt>
      <trkpt lat="45.57128" lon="6.07048">
        <ele>1495.567139</ele>
        <time>2011-09-25T13:00:01Z</time>
      </trkpt>
      <trkpt lat="45.57121" lon="6.07059">
        <ele>1499.660767</ele>
        <time>2011-09-25T13:00:29Z</time>
      </trkpt>
      <trkpt lat="45.57112" lon="6.07061">
        <ele>1505.233765</ele>
        <time>2011-09-25T13:01:52Z</time>
      </trkpt>
      <trkpt lat="45.57104" lon="6.07068">
        <ele>1510.61438</ele>
        <time>2011-09-25T13:02:29Z</time>
      </trkpt>
      <trkpt lat="45.57095" lon="6.07063">
        <ele>1516.864502</ele>
        <time>2011-09-25T13:02:54Z</time>
      </trkpt>
      <trkpt lat="45.57087" lon="6.07056">
        <ele>1521.197998</ele>
        <time>2011-09-25T13:03:12Z</time>
      </trkpt>
      <trkpt lat="45.57078" lon="6.07061">
        <ele>1526.973633</ele>
        <time>2011-09-25T13:03:49Z</time>
      </trkpt>
      <trkpt lat="45.57069" lon="6.07056">
        <ele>1529.75293</ele>
        <time>2011-09-25T13:04:03Z</time>
      </trkpt>
      <trkpt lat="45.57059" lon="6.07051">
        <ele>1532.667847</ele>
        <time>2011-09-25T13:04:19Z</time>
      </trkpt>
      <trkpt lat="45.5705" lon="6.0705">
        <ele>1538.512207</ele>
        <time>2011-09-25T13:04:49Z</time>
      </trkpt>
      <trkpt lat="45.57041" lon="6.07046">
        <ele>1541.461304</ele>
        <time>2011-09-25T13:05:10Z</time>
      </trkpt>
      <trkpt lat="45.57032" lon="6.07042">
        <ele>1546.500488</ele>
        <time>2011-09-25T13:05:58Z</time>
      </trkpt>
      <trkpt lat="45.57023" lon="6.07038">
        <ele>1549.749268</ele>
        <time>2011-09-25T13:06:22Z</time>
      </trkpt>
      <trkpt lat="45.57018" lon="6.07027">
        <ele>1552.365112</ele>
        <time>2011-09-25T13:06:40Z</time>
      </trkpt>
      <trkpt lat="45.57013" lon="6.07017">
        <ele>1555.133545</ele>
        <time>2011-09-25T13:06:56Z</time>
      </trkpt>
      <trkpt lat="45.57004" lon="6.0701">
        <ele>1557.191406</ele>
        <time>2011-09-25T13:07:55Z</time>
      </trkpt>
      <trkpt lat="45.56995" lon="6.07007">
        <ele>1560.032349</ele>
        <time>2011-09-25T13:08:18Z</time>
      </trkpt>
      <trkpt lat="45.56987" lon="6.07">
        <ele>1562.654053</ele>
        <time>2011-09-25T13:08:36Z</time>
      </trkpt>
      <trkpt lat="45.56981" lon="6.06991">
        <ele>1565.519653</ele>
        <time>2011-09-25T13:08:55Z</time>
      </trkpt>
      <trkpt lat="45.56972" lon="6.06987">
        <ele>1569.340942</ele>
        <time>2011-09-25T13:09:27Z</time>
      </trkpt>
      <trkpt lat="45.56964" lon="6.06975">
        <ele>1572.038208</ele>
        <time>2011-09-25T13:10:09Z</time>
      </trkpt>
      <trkpt lat="45.56962" lon="6.06989">
        <ele>1581.380005</ele>
        <time>2011-09-25T13:11:50Z</time>
      </trkpt>
      <trkpt lat="45.56958" lon="6.07001">
        <ele>1584.835693</ele>
        <time>2011-09-25T13:12:06Z</time>
      </trkpt>
      <trkpt lat="45.56949" lon="6.07001">
        <ele>1589.885132</ele>
        <time>2011-09-25T13:12:45Z</time>
      </trkpt>
      <trkpt lat="45.5694" lon="6.07002">
        <ele>1592.942993</ele>
        <time>2011-09-25T13:13:02Z</time>
      </trkpt>
      <trkpt lat="45.56931" lon="6.07001">
        <ele>1595.32666</ele>
        <time>2011-09-25T13:13:19Z</time>
      </trkpt>
      <trkpt lat="45.56922" lon="6.07006">
        <ele>1598.704834</ele>
        <time>2011-09-25T13:14:17Z</time>
      </trkpt>
      <trkpt lat="45.56916" lon="6.07017">
        <ele>1600.487549</ele>
        <time>2011-09-25T13:14:30Z</time>
      </trkpt>
      <trkpt lat="45.5691" lon="6.07027">
        <ele>1601.51709</ele>
        <time>2011-09-25T13:14:39Z</time>
      </trkpt>
      <trkpt lat="45.56906" lon="6.07039">
        <ele>1602.281616</ele>
        <time>2011-09-25T13:14:46Z</time>
      </trkpt>
      <trkpt lat="45.569" lon="6.0705">
        <ele>1603.41687</ele>
        <time>2011-09-25T13:14:57Z</time>
      </trkpt>
      <trkpt lat="45.56895" lon="6.07062">
        <ele>1604.647705</ele>
        <time>2011-09-25T13:15:09Z</time>
      </trkpt>
      <trkpt lat="45.5689" lon="6.07073">
        <ele>1605.559082</ele>
        <time>2011-09-25T13:15:19Z</time>
      </trkpt>
      <trkpt lat="45.56883" lon="6.07081">
        <ele>1606.373047</ele>
        <time>2011-09-25T13:15:27Z</time>
      </trkpt>
      <trkpt lat="45.56873" lon="6.07084">
        <ele>1606.976929</ele>
        <time>2011-09-25T13:15:35Z</time>
      </trkpt>
      <trkpt lat="45.56863" lon="6.07087">
        <ele>1607.479736</ele>
        <time>2011-09-25T13:15:43Z</time>
      </trkpt>
      <trkpt lat="45.56854" lon="6.07087">
        <ele>1607.899292</ele>
        <time>2011-09-25T13:15:50Z</time>
      </trkpt>
      <trkpt lat="45.56845" lon="6.07087">
        <ele>1608.168091</ele>
        <time>2011-09-25T13:15:59Z</time>
      </trkpt>
      <trkpt lat="45.56835" lon="6.0709">
        <ele>1608.493408</ele>
        <time>2011-09-25T13:16:07Z</time>
      </trkpt>
      <trkpt lat="45.56826" lon="6.07087">
        <ele>1608.962769</ele>
        <time>2011-09-25T13:16:16Z</time>
      </trkpt>
      <trkpt lat="45.56817" lon="6.07083">
        <ele>1609.669189</ele>
        <time>2011-09-25T13:16:27Z</time>
      </trkpt>
      <trkpt lat="45.56808" lon="6.07078">
        <ele>1610.224121</ele>
        <time>2011-09-25T13:16:36Z</time>
      </trkpt>
      <trkpt lat="45.56799" lon="6.07074">
        <ele>1610.893188</ele>
        <time>2011-09-25T13:16:45Z</time>
      </trkpt>
      <trkpt lat="45.5679" lon="6.07075">
        <ele>1611.830688</ele>
        <time>2011-09-25T13:16:58Z</time>
      </trkpt>
      <trkpt lat="45.5678" lon="6.07076">
        <ele>1612.693115</ele>
        <time>2011-09-25T13:17:10Z</time>
      </trkpt>
      <trkpt lat="45.56771" lon="6.07072">
        <ele>1613.683838</ele>
        <time>2011-09-25T13:17:20Z</time>
      </trkpt>
      <trkpt lat="45.56761" lon="6.07073">
        <ele>1614.674438</ele>
        <time>2011-09-25T13:17:30Z</time>
      </trkpt>
      <trkpt lat="45.56752" lon="6.07077">
        <ele>1615.235352</ele>
        <time>2011-09-25T13:17:38Z</time>
      </trkpt>
      <trkpt lat="45.56742" lon="6.07077">
        <ele>1615.594116</ele>
        <time>2011-09-25T13:17:45Z</time>
      </trkpt>
      <trkpt lat="45.56733" lon="6.07073">
        <ele>1616.094971</ele>
        <time>2011-09-25T13:17:52Z</time>
      </trkpt>
      <trkpt lat="45.56724" lon="6.0707">
        <ele>1616.858276</ele>
        <time>2011-09-25T13:18:00Z</time>
      </trkpt>
      <trkpt lat="45.56719" lon="6.07058">
        <ele>1617.261353</ele>
        <time>2011-09-25T13:18:05Z</time>
      </trkpt>
      <trkpt lat="45.56712" lon="6.07047">
        <ele>1617.830811</ele>
        <time>2011-09-25T13:18:14Z</time>
      </trkpt>
      <trkpt lat="45.56705" lon="6.07037">
        <ele>1618.158325</ele>
        <time>2011-09-25T13:18:23Z</time>
      </trkpt>
      <trkpt lat="45.56698" lon="6.07028">
        <ele>1618.537109</ele>
        <time>2011-09-25T13:18:33Z</time>
      </trkpt>
      <trkpt lat="45.56691" lon="6.07019">
        <ele>1619.338745</ele>
        <time>2011-09-25T13:18:44Z</time>
      </trkpt>
      <trkpt lat="45.56683" lon="6.07012">
        <ele>1619.90332</ele>
        <time>2011-09-25T13:18:53Z</time>
      </trkpt>
      <trkpt lat="45.56679" lon="6.06999">
        <ele>1621.791382</ele>
        <time>2011-09-25T13:19:30Z</time>
      </trkpt>
      <trkpt lat="45.56674" lon="6.06989">
        <ele>1623.433228</ele>
        <time>2011-09-25T13:19:46Z</time>
      </trkpt>
      <trkpt lat="45.56668" lon="6.06978">
        <ele>1624.253296</ele>
        <time>2011-09-25T13:19:57Z</time>
      </trkpt>
      <trkpt lat="45.56663" lon="6.06968">
        <ele>1625.102417</ele>
        <time>2011-09-25T13:20:16Z</time>
      </trkpt>
      <trkpt lat="45.56659" lon="6.06956">
        <ele>1626.766357</ele>
        <time>2011-09-25T13:20:39Z</time>
      </trkpt>
      <trkpt lat="45.56654" lon="6.06943">
        <ele>1627.899414</ele>
        <time>2011-09-25T13:20:53Z</time>
      </trkpt>
      <trkpt lat="45.56652" lon="6.0693">
        <ele>1628.710693</ele>
        <time>2011-09-25T13:21:10Z</time>
      </trkpt>
      <trkpt lat="45.5665" lon="6.06917">
        <ele>1629.53479</ele>
        <time>2011-09-25T13:21:25Z</time>
      </trkpt>
      <trkpt lat="45.5665" lon="6.06903">
        <ele>1630.654785</ele>
        <time>2011-09-25T13:21:38Z</time>
      </trkpt>
      <trkpt lat="45.56648" lon="6.06891">
        <ele>1631.75415</ele>
        <time>2011-09-25T13:21:54Z</time>
      </trkpt>
      <trkpt lat="45.56644" lon="6.06879">
        <ele>1633.108154</ele>
        <time>2011-09-25T13:22:18Z</time>
      </trkpt>
      <trkpt lat="45.56644" lon="6.06866">
        <ele>1634.012939</ele>
        <time>2011-09-25T13:22:32Z</time>
      </trkpt>
      <trkpt lat="45.56644" lon="6.06853">
        <ele>1634.819702</ele>
        <time>2011-09-25T13:22:44Z</time>
      </trkpt>
      <trkpt lat="45.56647" lon="6.06841">
        <ele>1635.761475</ele>
        <time>2011-09-25T13:22:59Z</time>
      </trkpt>
      <trkpt lat="45.56649" lon="6.06828">
        <ele>1637.02002</ele>
        <time>2011-09-25T13:23:19Z</time>
      </trkpt>
      <trkpt lat="45.56648" lon="6.06815">
        <ele>1637.997559</ele>
        <time>2011-09-25T13:23:37Z</time>
      </trkpt>
      <trkpt lat="45.56642" lon="6.06805">
        <ele>1639.424683</ele>
        <time>2011-09-25T13:23:49Z</time>
      </trkpt>
      <trkpt lat="45.56637" lon="6.06794">
        <ele>1641.610352</ele>
        <time>2011-09-25T13:24:12Z</time>
      </trkpt>
      <trkpt lat="45.5663" lon="6.06785">
        <ele>1644.402344</ele>
        <time>2011-09-25T13:25:06Z</time>
      </trkpt>
      <trkpt lat="45.56627" lon="6.06773">
        <ele>1646.512085</ele>
        <time>2011-09-25T13:25:26Z</time>
      </trkpt>
      <trkpt lat="45.56621" lon="6.06763">
        <ele>1647.453857</ele>
        <time>2011-09-25T13:25:37Z</time>
      </trkpt>
      <trkpt lat="45.56619" lon="6.0675">
        <ele>1648.276978</ele>
        <time>2011-09-25T13:25:49Z</time>
      </trkpt>
      <trkpt lat="45.56616" lon="6.06738">
        <ele>1651.245117</ele>
        <time>2011-09-25T13:26:24Z</time>
      </trkpt>
      <trkpt lat="45.56616" lon="6.06725">
        <ele>1652.007812</ele>
        <time>2011-09-25T13:26:34Z</time>
      </trkpt>
      <trkpt lat="45.56609" lon="6.06717">
        <ele>1653.452515</ele>
        <time>2011-09-25T13:26:52Z</time>
      </trkpt>
      <trkpt lat="45.56601" lon="6.0671">
        <ele>1655.026001</ele>
        <time>2011-09-25T13:27:10Z</time>
      </trkpt>
      <trkpt lat="45.56599" lon="6.06695">
        <ele>1657.680542</ele>
        <time>2011-09-25T13:27:30Z</time>
      </trkpt>
      <trkpt lat="45.56597" lon="6.06682">
        <ele>1660.499023</ele>
        <time>2011-09-25T13:27:51Z</time>
      </trkpt>
      <trkpt lat="45.56594" lon="6.06669">
        <ele>1663.766968</ele>
        <time>2011-09-25T13:28:07Z</time>
      </trkpt>
      <trkpt lat="45.56591" lon="6.06657">
        <ele>1665.981201</ele>
        <time>2011-09-25T13:28:23Z</time>
      </trkpt>
    </trkseg>
  </trk>
</gpx>